sensor_id;sensor_type;location;lat;lon;timestamp;temperature;humidity
34726;DHT22;20951;50.818;4.344;2024-02-14T00:00:45;9.20;99.90
34726;DHT22;20951;50.818;4.344;2024-02-14T00:03:12;9.20;99.90
34726;DHT22;20951;50.818;4.344;2024-02-14T00:05:38;9.20;99.90
34726;DHT22;20951;50.818;4.344;2024-02-14T00:08:05;9.30;99.90
34726;DHT22;20951;50.818;4.344;2024-02-14T00:10:32;9.30;99.90
34726;DHT22;20951;50.818;4.344;2024-02-14T00:12:58;9.30;99.90
34726;DHT22;20951;50.818;4.344;2024-02-14T00:15:24;9.30;99.90
34726;DHT22;20951;50.818;4.344;2024-02-14T00:17:53;9.30;99.90
34726;DHT22;20951;50.818;4.344;2024-02-14T00:20:20;9.30;99.90
34726;DHT22;20951;50.818;4.344;2024-02-14T00:22:47;9.40;99.90
34726;DHT22;20951;50.818;4.344;2024-02-14T00:25:13;9.40;99.90
34726;DHT22;20951;50.818;4.344;2024-02-14T00:27:39;9.40;99.90
34726;DHT22;20951;50.818;4.344;2024-02-14T00:30:06;9.40;99.90
34726;DHT22;20951;50.818;4.344;2024-02-14T00:32:32;9.50;99.90
34726;DHT22;20951;50.818;4.344;2024-02-14T00:34:59;9.60;99.90
34726;DHT22;20951;50.818;4.344;2024-02-14T00:37:24;9.70;99.90
34726;DHT22;20951;50.818;4.344;2024-02-14T00:39:50;9.70;99.90
34726;DHT22;20951;50.818;4.344;2024-02-14T00:42:17;9.60;99.90
34726;DHT22;20951;50.818;4.344;2024-02-14T00:44:43;9.70;99.90
34726;DHT22;20951;50.818;4.344;2024-02-14T00:47:08;9.70;99.90
34726;DHT22;20951;50.818;4.344;2024-02-14T00:49:35;9.70;99.90
34726;DHT22;20951;50.818;4.344;2024-02-14T00:52:01;9.70;99.90
34726;DHT22;20951;50.818;4.344;2024-02-14T00:54:27;9.80;99.90
34726;DHT22;20951;50.818;4.344;2024-02-14T00:56:53;9.80;99.90
34726;DHT22;20951;50.818;4.344;2024-02-14T00:59:20;9.70;99.90
34726;DHT22;20951;50.818;4.344;2024-02-14T01:01:46;9.70;99.90
34726;DHT22;20951;50.818;4.344;2024-02-14T01:04:13;9.80;99.90
34726;DHT22;20951;50.818;4.344;2024-02-14T01:06:39;9.80;99.90
34726;DHT22;20951;50.818;4.344;2024-02-14T01:09:05;9.70;99.90
34726;DHT22;20951;50.818;4.344;2024-02-14T01:11:31;9.70;99.90
34726;DHT22;20951;50.818;4.344;2024-02-14T01:13:57;9.60;99.90
34726;DHT22;20951;50.818;4.344;2024-02-14T01:16:24;9.70;99.90
34726;DHT22;20951;50.818;4.344;2024-02-14T01:18:53;9.80;99.90
34726;DHT22;20951;50.818;4.344;2024-02-14T01:21:18;9.80;99.90
34726;DHT22;20951;50.818;4.344;2024-02-14T01:23:50;9.80;99.90
34726;DHT22;20951;50.818;4.344;2024-02-14T01:26:17;9.80;99.90
34726;DHT22;20951;50.818;4.344;2024-02-14T01:28:43;9.60;99.90
34726;DHT22;20951;50.818;4.344;2024-02-14T01:31:10;9.50;99.90
34726;DHT22;20951;50.818;4.344;2024-02-14T01:33:37;9.60;99.90
34726;DHT22;20951;50.818;4.344;2024-02-14T01:36:03;9.60;99.90
34726;DHT22;20951;50.818;4.344;2024-02-14T01:38:29;9.50;99.90
34726;DHT22;20951;50.818;4.344;2024-02-14T01:41:03;9.60;99.90
34726;DHT22;20951;50.818;4.344;2024-02-14T01:43:29;9.70;99.90
34726;DHT22;20951;50.818;4.344;2024-02-14T01:46:01;9.60;99.90
34726;DHT22;20951;50.818;4.344;2024-02-14T01:48:29;9.70;99.90
34726;DHT22;20951;50.818;4.344;2024-02-14T01:50:54;9.80;99.90
34726;DHT22;20951;50.818;4.344;2024-02-14T01:53:20;9.80;99.90
34726;DHT22;20951;50.818;4.344;2024-02-14T01:55:46;9.80;99.90
34726;DHT22;20951;50.818;4.344;2024-02-14T01:58:12;9.70;99.90
34726;DHT22;20951;50.818;4.344;2024-02-14T02:00:39;9.70;99.90
34726;DHT22;20951;50.818;4.344;2024-02-14T02:03:05;9.70;99.90
34726;DHT22;20951;50.818;4.344;2024-02-14T02:05:34;9.80;99.90
34726;DHT22;20951;50.818;4.344;2024-02-14T02:08:00;9.90;99.90
34726;DHT22;20951;50.818;4.344;2024-02-14T02:10:26;9.90;99.90
34726;DHT22;20951;50.818;4.344;2024-02-14T02:12:58;9.80;99.90
34726;DHT22;20951;50.818;4.344;2024-02-14T02:15:25;9.70;99.90
34726;DHT22;20951;50.818;4.344;2024-02-14T02:17:50;9.70;99.90
34726;DHT22;20951;50.818;4.344;2024-02-14T02:20:19;9.70;99.90
34726;DHT22;20951;50.818;4.344;2024-02-14T02:22:46;9.60;99.90
34726;DHT22;20951;50.818;4.344;2024-02-14T02:25:14;9.70;99.90
34726;DHT22;20951;50.818;4.344;2024-02-14T02:27:40;9.70;99.90
34726;DHT22;20951;50.818;4.344;2024-02-14T02:30:06;9.70;99.90
34726;DHT22;20951;50.818;4.344;2024-02-14T02:32:33;9.70;99.90
34726;DHT22;20951;50.818;4.344;2024-02-14T02:34:59;9.70;99.90
34726;DHT22;20951;50.818;4.344;2024-02-14T02:37:26;9.80;99.90
34726;DHT22;20951;50.818;4.344;2024-02-14T02:39:55;9.90;99.90
34726;DHT22;20951;50.818;4.344;2024-02-14T02:42:22;9.90;99.90
34726;DHT22;20951;50.818;4.344;2024-02-14T02:44:51;9.90;99.90
34726;DHT22;20951;50.818;4.344;2024-02-14T02:47:17;9.90;99.90
34726;DHT22;20951;50.818;4.344;2024-02-14T02:49:43;9.80;99.90
34726;DHT22;20951;50.818;4.344;2024-02-14T02:52:12;10.00;99.90
34726;DHT22;20951;50.818;4.344;2024-02-14T02:54:39;10.00;99.90
34726;DHT22;20951;50.818;4.344;2024-02-14T02:57:10;10.10;99.90
34726;DHT22;20951;50.818;4.344;2024-02-14T02:59:36;10.00;99.90
34726;DHT22;20951;50.818;4.344;2024-02-14T03:02:02;10.00;99.90
34726;DHT22;20951;50.818;4.344;2024-02-14T03:04:28;10.00;99.90
34726;DHT22;20951;50.818;4.344;2024-02-14T03:06:55;10.10;99.90
34726;DHT22;20951;50.818;4.344;2024-02-14T03:09:20;10.20;99.90
34726;DHT22;20951;50.818;4.344;2024-02-14T03:11:47;10.20;99.90
34726;DHT22;20951;50.818;4.344;2024-02-14T03:14:13;10.20;99.90
34726;DHT22;20951;50.818;4.344;2024-02-14T03:16:39;10.30;99.90
34726;DHT22;20951;50.818;4.344;2024-02-14T03:19:05;10.30;99.90
34726;DHT22;20951;50.818;4.344;2024-02-14T03:21:31;10.20;99.90
34726;DHT22;20951;50.818;4.344;2024-02-14T03:24:02;10.20;99.90
34726;DHT22;20951;50.818;4.344;2024-02-14T03:26:31;10.20;99.90
34726;DHT22;20951;50.818;4.344;2024-02-14T03:29:00;10.20;99.90
34726;DHT22;20951;50.818;4.344;2024-02-14T03:31:26;10.20;99.90
34726;DHT22;20951;50.818;4.344;2024-02-14T03:33:52;10.10;99.90
34726;DHT22;20951;50.818;4.344;2024-02-14T03:36:19;10.10;99.90
34726;DHT22;20951;50.818;4.344;2024-02-14T03:38:45;10.20;99.90
34726;DHT22;20951;50.818;4.344;2024-02-14T03:41:12;10.00;99.90
34726;DHT22;20951;50.818;4.344;2024-02-14T03:43:38;10.00;99.90
34726;DHT22;20951;50.818;4.344;2024-02-14T03:46:04;9.90;99.90
34726;DHT22;20951;50.818;4.344;2024-02-14T03:48:31;9.90;99.90
34726;DHT22;20951;50.818;4.344;2024-02-14T03:50:57;9.90;99.90
34726;DHT22;20951;50.818;4.344;2024-02-14T03:53:23;9.90;99.90
34726;DHT22;20951;50.818;4.344;2024-02-14T03:55:49;10.00;99.90
34726;DHT22;20951;50.818;4.344;2024-02-14T03:58:15;9.90;99.90
34726;DHT22;20951;50.818;4.344;2024-02-14T04:00:50;10.00;99.90
34726;DHT22;20951;50.818;4.344;2024-02-14T04:03:17;10.00;99.90
34726;DHT22;20951;50.818;4.344;2024-02-14T04:05:43;10.10;99.90
34726;DHT22;20951;50.818;4.344;2024-02-14T04:08:10;10.10;99.90
34726;DHT22;20951;50.818;4.344;2024-02-14T04:10:36;10.00;99.90
34726;DHT22;20951;50.818;4.344;2024-02-14T04:13:06;10.00;99.90
34726;DHT22;20951;50.818;4.344;2024-02-14T04:15:32;10.00;99.90
34726;DHT22;20951;50.818;4.344;2024-02-14T04:17:58;9.90;99.90
34726;DHT22;20951;50.818;4.344;2024-02-14T04:20:25;9.90;99.90
34726;DHT22;20951;50.818;4.344;2024-02-14T04:22:51;9.90;99.90
34726;DHT22;20951;50.818;4.344;2024-02-14T04:25:17;10.00;99.90
34726;DHT22;20951;50.818;4.344;2024-02-14T04:27:44;10.10;99.90
34726;DHT22;20951;50.818;4.344;2024-02-14T04:30:10;10.00;99.90
34726;DHT22;20951;50.818;4.344;2024-02-14T04:32:36;10.10;99.90
34726;DHT22;20951;50.818;4.344;2024-02-14T04:35:02;10.10;99.90
34726;DHT22;20951;50.818;4.344;2024-02-14T04:37:27;10.20;99.90
34726;DHT22;20951;50.818;4.344;2024-02-14T04:39:56;10.10;99.90
34726;DHT22;20951;50.818;4.344;2024-02-14T04:42:22;10.20;99.90
34726;DHT22;20951;50.818;4.344;2024-02-14T04:44:48;10.20;99.90
34726;DHT22;20951;50.818;4.344;2024-02-14T04:47:14;10.20;99.90
34726;DHT22;20951;50.818;4.344;2024-02-14T04:49:40;10.20;99.90
34726;DHT22;20951;50.818;4.344;2024-02-14T04:52:06;10.20;99.90
34726;DHT22;20951;50.818;4.344;2024-02-14T04:54:33;10.20;99.90
34726;DHT22;20951;50.818;4.344;2024-02-14T04:56:58;10.10;99.90
34726;DHT22;20951;50.818;4.344;2024-02-14T04:59:24;10.20;99.90
34726;DHT22;20951;50.818;4.344;2024-02-14T05:01:50;10.30;99.90
34726;DHT22;20951;50.818;4.344;2024-02-14T05:04:17;10.20;99.90
34726;DHT22;20951;50.818;4.344;2024-02-14T05:06:43;10.20;99.90
34726;DHT22;20951;50.818;4.344;2024-02-14T05:09:08;10.30;99.90
34726;DHT22;20951;50.818;4.344;2024-02-14T05:11:37;10.20;99.90
34726;DHT22;20951;50.818;4.344;2024-02-14T05:14:03;10.20;99.90
34726;DHT22;20951;50.818;4.344;2024-02-14T05:16:29;10.30;99.90
34726;DHT22;20951;50.818;4.344;2024-02-14T05:18:55;10.30;99.90
34726;DHT22;20951;50.818;4.344;2024-02-14T05:21:20;10.30;99.90
34726;DHT22;20951;50.818;4.344;2024-02-14T05:23:47;10.40;99.90
34726;DHT22;20951;50.818;4.344;2024-02-14T05:26:13;10.50;99.90
34726;DHT22;20951;50.818;4.344;2024-02-14T05:28:38;10.40;99.90
34726;DHT22;20951;50.818;4.344;2024-02-14T05:31:05;10.40;99.90
34726;DHT22;20951;50.818;4.344;2024-02-14T05:33:31;10.40;99.90
34726;DHT22;20951;50.818;4.344;2024-02-14T05:35:57;10.40;99.90
34726;DHT22;20951;50.818;4.344;2024-02-14T05:38:22;10.40;99.90
34726;DHT22;20951;50.818;4.344;2024-02-14T05:40:49;10.40;99.90
34726;DHT22;20951;50.818;4.344;2024-02-14T05:43:15;10.40;99.90
34726;DHT22;20951;50.818;4.344;2024-02-14T05:45:42;10.40;99.90
34726;DHT22;20951;50.818;4.344;2024-02-14T05:48:08;10.40;99.90
34726;DHT22;20951;50.818;4.344;2024-02-14T05:50:34;10.50;99.90
34726;DHT22;20951;50.818;4.344;2024-02-14T05:53:00;10.50;99.90
34726;DHT22;20951;50.818;4.344;2024-02-14T05:55:27;10.60;99.90
34726;DHT22;20951;50.818;4.344;2024-02-14T05:57:52;10.50;99.90
34726;DHT22;20951;50.818;4.344;2024-02-14T06:00:19;10.40;99.90
34726;DHT22;20951;50.818;4.344;2024-02-14T06:02:46;10.40;99.90
34726;DHT22;20951;50.818;4.344;2024-02-14T06:05:13;10.40;99.90
34726;DHT22;20951;50.818;4.344;2024-02-14T06:07:40;10.50;99.90
34726;DHT22;20951;50.818;4.344;2024-02-14T06:10:10;10.50;99.90
34726;DHT22;20951;50.818;4.344;2024-02-14T06:12:36;10.40;99.90
34726;DHT22;20951;50.818;4.344;2024-02-14T06:15:02;10.40;99.90
34726;DHT22;20951;50.818;4.344;2024-02-14T06:17:28;10.30;99.90
34726;DHT22;20951;50.818;4.344;2024-02-14T06:19:54;10.30;99.90
34726;DHT22;20951;50.818;4.344;2024-02-14T06:22:20;10.40;99.90
34726;DHT22;20951;50.818;4.344;2024-02-14T06:24:47;10.40;99.90
34726;DHT22;20951;50.818;4.344;2024-02-14T06:27:16;10.40;99.90
34726;DHT22;20951;50.818;4.344;2024-02-14T06:29:45;10.30;99.90
34726;DHT22;20951;50.818;4.344;2024-02-14T06:32:14;10.40;99.90
34726;DHT22;20951;50.818;4.344;2024-02-14T06:34:40;10.50;99.90
34726;DHT22;20951;50.818;4.344;2024-02-14T06:37:05;10.50;99.90
34726;DHT22;20951;50.818;4.344;2024-02-14T06:39:31;10.60;99.90
34726;DHT22;20951;50.818;4.344;2024-02-14T06:41:57;10.60;99.90
34726;DHT22;20951;50.818;4.344;2024-02-14T06:44:24;10.70;99.90
34726;DHT22;20951;50.818;4.344;2024-02-14T06:46:49;10.70;99.90
34726;DHT22;20951;50.818;4.344;2024-02-14T06:49:18;10.60;99.90
34726;DHT22;20951;50.818;4.344;2024-02-14T06:51:44;10.70;99.90
34726;DHT22;20951;50.818;4.344;2024-02-14T06:54:11;10.60;99.90
34726;DHT22;20951;50.818;4.344;2024-02-14T06:56:39;10.70;99.90
34726;DHT22;20951;50.818;4.344;2024-02-14T06:59:05;10.60;99.90
34726;DHT22;20951;50.818;4.344;2024-02-14T07:01:31;10.70;99.90
34726;DHT22;20951;50.818;4.344;2024-02-14T07:03:58;10.80;99.90
34726;DHT22;20951;50.818;4.344;2024-02-14T07:06:23;10.80;99.90
34726;DHT22;20951;50.818;4.344;2024-02-14T07:08:49;10.80;99.90
34726;DHT22;20951;50.818;4.344;2024-02-14T07:11:16;10.80;99.90
34726;DHT22;20951;50.818;4.344;2024-02-14T07:13:42;10.80;99.90
34726;DHT22;20951;50.818;4.344;2024-02-14T07:16:08;10.80;99.90
34726;DHT22;20951;50.818;4.344;2024-02-14T07:18:34;10.80;99.90
34726;DHT22;20951;50.818;4.344;2024-02-14T07:21:00;10.80;99.90
34726;DHT22;20951;50.818;4.344;2024-02-14T07:23:31;10.90;99.90
34726;DHT22;20951;50.818;4.344;2024-02-14T07:26:01;10.90;99.90
34726;DHT22;20951;50.818;4.344;2024-02-14T07:28:27;11.00;99.90
34726;DHT22;20951;50.818;4.344;2024-02-14T07:30:52;11.00;99.90
34726;DHT22;20951;50.818;4.344;2024-02-14T07:33:18;11.00;99.90
34726;DHT22;20951;50.818;4.344;2024-02-14T07:35:44;11.00;99.90
34726;DHT22;20951;50.818;4.344;2024-02-14T07:38:10;11.00;99.90
34726;DHT22;20951;50.818;4.344;2024-02-14T07:40:36;11.00;99.90
34726;DHT22;20951;50.818;4.344;2024-02-14T07:43:02;11.00;99.90
34726;DHT22;20951;50.818;4.344;2024-02-14T07:45:28;11.00;99.90
34726;DHT22;20951;50.818;4.344;2024-02-14T07:47:54;11.00;99.90
34726;DHT22;20951;50.818;4.344;2024-02-14T07:50:20;11.20;99.90
34726;DHT22;20951;50.818;4.344;2024-02-14T07:52:47;11.10;99.90
34726;DHT22;20951;50.818;4.344;2024-02-14T07:55:13;11.20;99.90
34726;DHT22;20951;50.818;4.344;2024-02-14T07:57:39;11.10;99.90
34726;DHT22;20951;50.818;4.344;2024-02-14T08:00:06;11.10;99.90
34726;DHT22;20951;50.818;4.344;2024-02-14T08:02:35;11.20;99.90
34726;DHT22;20951;50.818;4.344;2024-02-14T08:05:01;11.20;99.90
34726;DHT22;20951;50.818;4.344;2024-02-14T08:07:27;11.30;99.90
34726;DHT22;20951;50.818;4.344;2024-02-14T08:09:54;11.40;99.90
34726;DHT22;20951;50.818;4.344;2024-02-14T08:12:20;11.40;99.90
34726;DHT22;20951;50.818;4.344;2024-02-14T08:14:47;11.20;99.90
34726;DHT22;20951;50.818;4.344;2024-02-14T08:17:13;11.20;99.90
34726;DHT22;20951;50.818;4.344;2024-02-14T08:19:39;11.20;99.90
34726;DHT22;20951;50.818;4.344;2024-02-14T08:22:05;11.20;99.90
34726;DHT22;20951;50.818;4.344;2024-02-14T08:24:32;11.10;99.90
34726;DHT22;20951;50.818;4.344;2024-02-14T08:26:59;11.10;99.90
34726;DHT22;20951;50.818;4.344;2024-02-14T08:29:25;11.20;99.90
34726;DHT22;20951;50.818;4.344;2024-02-14T08:31:51;11.20;99.90
34726;DHT22;20951;50.818;4.344;2024-02-14T08:34:17;11.10;99.90
34726;DHT22;20951;50.818;4.344;2024-02-14T08:36:43;11.00;99.90
34726;DHT22;20951;50.818;4.344;2024-02-14T08:39:09;11.00;99.90
34726;DHT22;20951;50.818;4.344;2024-02-14T08:41:38;11.10;99.90
34726;DHT22;20951;50.818;4.344;2024-02-14T08:44:04;11.20;99.90
34726;DHT22;20951;50.818;4.344;2024-02-14T08:46:31;11.30;99.90
34726;DHT22;20951;50.818;4.344;2024-02-14T08:48:56;11.30;99.90
34726;DHT22;20951;50.818;4.344;2024-02-14T08:51:22;11.30;99.90
34726;DHT22;20951;50.818;4.344;2024-02-14T08:53:49;11.30;99.90
34726;DHT22;20951;50.818;4.344;2024-02-14T08:56:17;11.30;99.90
34726;DHT22;20951;50.818;4.344;2024-02-14T08:58:42;11.30;99.90
34726;DHT22;20951;50.818;4.344;2024-02-14T09:01:09;11.30;99.90
34726;DHT22;20951;50.818;4.344;2024-02-14T09:03:36;11.30;99.90
34726;DHT22;20951;50.818;4.344;2024-02-14T09:06:02;11.40;99.90
34726;DHT22;20951;50.818;4.344;2024-02-14T09:08:29;11.40;99.90
34726;DHT22;20951;50.818;4.344;2024-02-14T09:10:56;11.40;99.90
34726;DHT22;20951;50.818;4.344;2024-02-14T09:13:24;11.40;99.90
34726;DHT22;20951;50.818;4.344;2024-02-14T09:15:50;11.40;99.90
34726;DHT22;20951;50.818;4.344;2024-02-14T09:18:18;11.50;99.90
34726;DHT22;20951;50.818;4.344;2024-02-14T09:20:44;11.40;99.90
34726;DHT22;20951;50.818;4.344;2024-02-14T09:23:14;11.40;99.90
34726;DHT22;20951;50.818;4.344;2024-02-14T09:25:51;11.40;99.90
34726;DHT22;20951;50.818;4.344;2024-02-14T09:28:18;11.40;99.90
34726;DHT22;20951;50.818;4.344;2024-02-14T09:30:44;11.40;99.90
34726;DHT22;20951;50.818;4.344;2024-02-14T09:33:10;11.50;99.90
34726;DHT22;20951;50.818;4.344;2024-02-14T09:35:35;11.50;99.90
34726;DHT22;20951;50.818;4.344;2024-02-14T09:38:03;11.60;99.90
34726;DHT22;20951;50.818;4.344;2024-02-14T09:40:29;11.60;99.90
34726;DHT22;20951;50.818;4.344;2024-02-14T09:42:56;11.60;99.90
34726;DHT22;20951;50.818;4.344;2024-02-14T09:45:26;11.60;99.90
34726;DHT22;20951;50.818;4.344;2024-02-14T09:47:53;11.70;99.90
34726;DHT22;20951;50.818;4.344;2024-02-14T09:50:20;11.70;99.90
34726;DHT22;20951;50.818;4.344;2024-02-14T09:52:49;11.60;99.90
34726;DHT22;20951;50.818;4.344;2024-02-14T09:55:15;11.40;99.90
34726;DHT22;20951;50.818;4.344;2024-02-14T09:57:42;11.40;99.90
34726;DHT22;20951;50.818;4.344;2024-02-14T10:00:12;11.50;99.90
34726;DHT22;20951;50.818;4.344;2024-02-14T10:02:41;11.40;99.90
34726;DHT22;20951;50.818;4.344;2024-02-14T10:05:07;11.40;99.90
34726;DHT22;20951;50.818;4.344;2024-02-14T10:07:44;11.40;99.90
34726;DHT22;20951;50.818;4.344;2024-02-14T10:10:10;11.40;99.90
34726;DHT22;20951;50.818;4.344;2024-02-14T10:12:42;11.40;99.90
34726;DHT22;20951;50.818;4.344;2024-02-14T10:15:08;11.50;99.90
34726;DHT22;20951;50.818;4.344;2024-02-14T10:17:34;11.60;99.90
34726;DHT22;20951;50.818;4.344;2024-02-14T10:20:02;11.50;99.90
34726;DHT22;20951;50.818;4.344;2024-02-14T10:22:38;11.50;99.90
34726;DHT22;20951;50.818;4.344;2024-02-14T10:25:05;11.40;99.90
34726;DHT22;20951;50.818;4.344;2024-02-14T10:27:38;11.50;99.90
34726;DHT22;20951;50.818;4.344;2024-02-14T10:30:08;11.50;99.90
34726;DHT22;20951;50.818;4.344;2024-02-14T10:32:39;11.50;99.90
34726;DHT22;20951;50.818;4.344;2024-02-14T10:35:13;11.60;99.90
34726;DHT22;20951;50.818;4.344;2024-02-14T10:37:41;11.60;99.90
34726;DHT22;20951;50.818;4.344;2024-02-14T10:40:08;11.60;99.90
34726;DHT22;20951;50.818;4.344;2024-02-14T10:42:36;11.70;99.90
34726;DHT22;20951;50.818;4.344;2024-02-14T10:45:02;11.70;99.90
34726;DHT22;20951;50.818;4.344;2024-02-14T10:47:35;11.60;99.90
34726;DHT22;20951;50.818;4.344;2024-02-14T10:50:06;11.60;99.90
34726;DHT22;20951;50.818;4.344;2024-02-14T10:52:34;11.70;99.90
34726;DHT22;20951;50.818;4.344;2024-02-14T10:55:03;11.60;99.90
34726;DHT22;20951;50.818;4.344;2024-02-14T10:57:29;11.70;99.90
34726;DHT22;20951;50.818;4.344;2024-02-14T10:59:59;11.70;99.90
34726;DHT22;20951;50.818;4.344;2024-02-14T11:02:27;11.70;99.90
34726;DHT22;20951;50.818;4.344;2024-02-14T11:04:59;11.70;99.90
34726;DHT22;20951;50.818;4.344;2024-02-14T11:07:28;11.70;99.90
34726;DHT22;20951;50.818;4.344;2024-02-14T11:10:06;11.80;99.90
34726;DHT22;20951;50.818;4.344;2024-02-14T11:12:33;11.90;99.90
34726;DHT22;20951;50.818;4.344;2024-02-14T11:15:00;11.90;99.90
34726;DHT22;20951;50.818;4.344;2024-02-14T11:17:26;11.70;99.90
34726;DHT22;20951;50.818;4.344;2024-02-14T11:19:53;11.80;99.90
34726;DHT22;20951;50.818;4.344;2024-02-14T11:22:20;11.80;99.90
34726;DHT22;20951;50.818;4.344;2024-02-14T11:24:46;11.80;99.90
34726;DHT22;20951;50.818;4.344;2024-02-14T11:27:12;11.80;99.90
34726;DHT22;20951;50.818;4.344;2024-02-14T11:29:39;12.00;99.90
34726;DHT22;20951;50.818;4.344;2024-02-14T11:32:09;12.00;99.90
34726;DHT22;20951;50.818;4.344;2024-02-14T11:34:36;12.10;99.90
34726;DHT22;20951;50.818;4.344;2024-02-14T11:37:02;12.00;99.90
34726;DHT22;20951;50.818;4.344;2024-02-14T11:39:30;12.00;99.90
34726;DHT22;20951;50.818;4.344;2024-02-14T11:41:57;12.10;99.90
34726;DHT22;20951;50.818;4.344;2024-02-14T11:44:24;12.00;99.90
34726;DHT22;20951;50.818;4.344;2024-02-14T11:46:51;12.00;99.90
34726;DHT22;20951;50.818;4.344;2024-02-14T11:49:17;12.00;99.90
34726;DHT22;20951;50.818;4.344;2024-02-14T11:51:44;12.00;99.90
34726;DHT22;20951;50.818;4.344;2024-02-14T11:54:10;12.10;99.90
34726;DHT22;20951;50.818;4.344;2024-02-14T11:56:39;12.10;99.90
34726;DHT22;20951;50.818;4.344;2024-02-14T11:59:07;12.00;99.90
34726;DHT22;20951;50.818;4.344;2024-02-14T12:01:36;12.20;99.90
34726;DHT22;20951;50.818;4.344;2024-02-14T12:04:04;12.20;99.90
34726;DHT22;20951;50.818;4.344;2024-02-14T12:06:31;12.10;99.90
34726;DHT22;20951;50.818;4.344;2024-02-14T12:08:59;12.10;99.90
34726;DHT22;20951;50.818;4.344;2024-02-14T12:11:34;12.10;99.90
34726;DHT22;20951;50.818;4.344;2024-02-14T12:14:03;12.10;99.90
34726;DHT22;20951;50.818;4.344;2024-02-14T12:16:30;12.20;99.90
34726;DHT22;20951;50.818;4.344;2024-02-14T12:19:13;12.20;99.90
34726;DHT22;20951;50.818;4.344;2024-02-14T12:21:41;12.30;99.90
34726;DHT22;20951;50.818;4.344;2024-02-14T12:24:12;12.20;99.90
34726;DHT22;20951;50.818;4.344;2024-02-14T12:26:41;12.30;99.90
34726;DHT22;20951;50.818;4.344;2024-02-14T12:29:08;12.30;99.90
34726;DHT22;20951;50.818;4.344;2024-02-14T12:31:36;12.40;99.90
34726;DHT22;20951;50.818;4.344;2024-02-14T12:34:03;12.40;99.90
34726;DHT22;20951;50.818;4.344;2024-02-14T12:36:32;12.40;99.90
34726;DHT22;20951;50.818;4.344;2024-02-14T12:39:01;12.50;99.90
34726;DHT22;20951;50.818;4.344;2024-02-14T12:41:28;12.50;99.90
34726;DHT22;20951;50.818;4.344;2024-02-14T12:43:55;12.50;99.90
34726;DHT22;20951;50.818;4.344;2024-02-14T12:46:21;12.60;99.90
34726;DHT22;20951;50.818;4.344;2024-02-14T12:48:47;12.60;99.90
34726;DHT22;20951;50.818;4.344;2024-02-14T12:51:14;12.70;99.90
34726;DHT22;20951;50.818;4.344;2024-02-14T12:53:40;12.70;99.90
34726;DHT22;20951;50.818;4.344;2024-02-14T12:56:07;12.70;99.90
34726;DHT22;20951;50.818;4.344;2024-02-14T12:58:33;12.70;99.90
34726;DHT22;20951;50.818;4.344;2024-02-14T13:00:59;12.60;99.90
34726;DHT22;20951;50.818;4.344;2024-02-14T13:03:26;12.70;99.90
34726;DHT22;20951;50.818;4.344;2024-02-14T13:05:52;12.80;99.90
34726;DHT22;20951;50.818;4.344;2024-02-14T13:08:21;12.80;99.90
34726;DHT22;20951;50.818;4.344;2024-02-14T13:10:46;12.80;99.90
34726;DHT22;20951;50.818;4.344;2024-02-14T13:13:13;12.80;99.90
34726;DHT22;20951;50.818;4.344;2024-02-14T13:15:39;12.70;99.90
34726;DHT22;20951;50.818;4.344;2024-02-14T13:18:07;12.80;99.90
34726;DHT22;20951;50.818;4.344;2024-02-14T13:20:33;12.80;99.90
34726;DHT22;20951;50.818;4.344;2024-02-14T13:23:00;12.70;99.90
34726;DHT22;20951;50.818;4.344;2024-02-14T13:25:25;12.50;99.90
34726;DHT22;20951;50.818;4.344;2024-02-14T13:27:51;12.60;99.90
34726;DHT22;20951;50.818;4.344;2024-02-14T13:30:17;12.60;99.90
34726;DHT22;20951;50.818;4.344;2024-02-14T13:32:44;12.60;99.90
34726;DHT22;20951;50.818;4.344;2024-02-14T13:35:10;12.60;99.90
34726;DHT22;20951;50.818;4.344;2024-02-14T13:37:39;12.60;99.90
34726;DHT22;20951;50.818;4.344;2024-02-14T13:40:05;12.70;99.90
34726;DHT22;20951;50.818;4.344;2024-02-14T13:42:36;12.70;99.90
34726;DHT22;20951;50.818;4.344;2024-02-14T13:45:05;12.60;99.90
34726;DHT22;20951;50.818;4.344;2024-02-14T13:47:36;12.60;99.90
34726;DHT22;20951;50.818;4.344;2024-02-14T13:50:08;12.50;99.90
34726;DHT22;20951;50.818;4.344;2024-02-14T13:52:34;12.50;99.90
34726;DHT22;20951;50.818;4.344;2024-02-14T13:55:04;12.60;99.90
34726;DHT22;20951;50.818;4.344;2024-02-14T13:57:37;12.70;99.90
34726;DHT22;20951;50.818;4.344;2024-02-14T14:00:08;12.60;99.90
34726;DHT22;20951;50.818;4.344;2024-02-14T14:02:38;12.70;99.90
34726;DHT22;20951;50.818;4.344;2024-02-14T14:05:08;12.70;99.90
34726;DHT22;20951;50.818;4.344;2024-02-14T14:07:43;12.60;99.90
34726;DHT22;20951;50.818;4.344;2024-02-14T14:10:09;12.70;99.90
34726;DHT22;20951;50.818;4.344;2024-02-14T14:12:36;12.70;99.90
34726;DHT22;20951;50.818;4.344;2024-02-14T14:15:02;12.60;99.90
34726;DHT22;20951;50.818;4.344;2024-02-14T14:17:28;12.60;99.90
34726;DHT22;20951;50.818;4.344;2024-02-14T14:19:54;12.70;99.90
34726;DHT22;20951;50.818;4.344;2024-02-14T14:22:20;12.70;99.90
34726;DHT22;20951;50.818;4.344;2024-02-14T14:24:47;12.80;99.90
34726;DHT22;20951;50.818;4.344;2024-02-14T14:27:14;12.80;99.90
34726;DHT22;20951;50.818;4.344;2024-02-14T14:29:43;12.80;99.90
34726;DHT22;20951;50.818;4.344;2024-02-14T14:32:10;12.70;99.90
34726;DHT22;20951;50.818;4.344;2024-02-14T14:34:36;12.70;99.90
34726;DHT22;20951;50.818;4.344;2024-02-14T14:37:05;12.70;99.90
34726;DHT22;20951;50.818;4.344;2024-02-14T14:39:33;12.70;99.90
34726;DHT22;20951;50.818;4.344;2024-02-14T14:42:00;12.70;99.90
34726;DHT22;20951;50.818;4.344;2024-02-14T14:44:25;12.80;99.90
34726;DHT22;20951;50.818;4.344;2024-02-14T14:46:52;12.80;99.90
34726;DHT22;20951;50.818;4.344;2024-02-14T14:49:18;12.80;99.90
34726;DHT22;20951;50.818;4.344;2024-02-14T14:51:44;12.90;99.90
34726;DHT22;20951;50.818;4.344;2024-02-14T14:54:10;12.80;99.90
34726;DHT22;20951;50.818;4.344;2024-02-14T14:56:36;12.80;99.90
34726;DHT22;20951;50.818;4.344;2024-02-14T14:59:02;12.80;99.90
34726;DHT22;20951;50.818;4.344;2024-02-14T15:01:31;12.80;99.90
34726;DHT22;20951;50.818;4.344;2024-02-14T15:04:02;12.90;99.90
34726;DHT22;20951;50.818;4.344;2024-02-14T15:06:28;13.00;99.90
34726;DHT22;20951;50.818;4.344;2024-02-14T15:08:54;12.90;99.90
34726;DHT22;20951;50.818;4.344;2024-02-14T15:11:19;12.80;99.90
34726;DHT22;20951;50.818;4.344;2024-02-14T15:13:47;12.80;99.90
34726;DHT22;20951;50.818;4.344;2024-02-14T15:16:12;12.90;99.90
34726;DHT22;20951;50.818;4.344;2024-02-14T15:18:46;12.80;99.90
34726;DHT22;20951;50.818;4.344;2024-02-14T15:21:12;12.90;99.90
34726;DHT22;20951;50.818;4.344;2024-02-14T15:23:38;13.00;99.90
34726;DHT22;20951;50.818;4.344;2024-02-14T15:26:06;13.00;99.90
34726;DHT22;20951;50.818;4.344;2024-02-14T15:28:37;13.00;99.90
34726;DHT22;20951;50.818;4.344;2024-02-14T15:31:09;13.00;99.90
34726;DHT22;20951;50.818;4.344;2024-02-14T15:33:53;12.90;99.90